sensor_id;sensor_type;location;lat;lon;timestamp;pressure;altitude;pressure_sealevel;temperature
45393;BMP280;31129;44.810;10.334;2023-03-30T00:01:15;101431.00;;;14.96
45393;BMP280;31129;44.810;10.334;2023-03-30T00:03:41;101429.88;;;14.88
45393;BMP280;31129;44.810;10.334;2023-03-30T00:06:07;101433.47;;;14.94
45393;BMP280;31129;44.810;10.334;2023-03-30T00:08:33;101441.94;;;14.91
45393;BMP280;31129;44.810;10.334;2023-03-30T00:10:59;101446.88;;;14.87
45393;BMP280;31129;44.810;10.334;2023-03-30T00:13:25;101439.66;;;14.89
45393;BMP280;31129;44.810;10.334;2023-03-30T00:15:51;101438.91;;;14.89
45393;BMP280;31129;44.810;10.334;2023-03-30T00:18:20;101439.25;;;14.96
45393;BMP280;31129;44.810;10.334;2023-03-30T00:20:47;101450.16;;;14.91
45393;BMP280;31129;44.810;10.334;2023-03-30T00:23:12;101442.22;;;14.93
45393;BMP280;31129;44.810;10.334;2023-03-30T00:25:37;101441.94;;;14.91
45393;BMP280;31129;44.810;10.334;2023-03-30T00:28:02;101439.72;;;14.95
45393;BMP280;31129;44.810;10.334;2023-03-30T00:30:28;101428.19;;;14.91
45393;BMP280;31129;44.810;10.334;2023-03-30T00:32:53;101437.66;;;14.90
45393;BMP280;31129;44.810;10.334;2023-03-30T00:35:18;101434.84;;;14.84
45393;BMP280;31129;44.810;10.334;2023-03-30T00:37:44;101426.41;;;14.88
45393;BMP280;31129;44.810;10.334;2023-03-30T00:40:13;101427.72;;;14.92
45393;BMP280;31129;44.810;10.334;2023-03-30T00:42:40;101416.91;;;14.89
45393;BMP280;31129;44.810;10.334;2023-03-30T00:47:39;101415.97;;;14.92
45393;BMP280;31129;44.810;10.334;2023-03-30T00:50:05;101421.19;;;14.90
45393;BMP280;31129;44.810;10.334;2023-03-30T00:52:32;101421.94;;;14.90
45393;BMP280;31129;44.810;10.334;2023-03-30T00:54:57;101423.84;;;14.84
45393;BMP280;31129;44.810;10.334;2023-03-30T00:57:23;101422.34;;;14.83
45393;BMP280;31129;44.810;10.334;2023-03-30T00:59:50;101422.16;;;14.87
45393;BMP280;31129;44.810;10.334;2023-03-30T01:02:16;101420.41;;;14.89
45393;BMP280;31129;44.810;10.334;2023-03-30T01:04:43;101411.81;;;14.82
45393;BMP280;31129;44.810;10.334;2023-03-30T01:07:09;101413.66;;;14.70
45393;BMP280;31129;44.810;10.334;2023-03-30T01:09:39;101411.22;;;14.57
45393;BMP280;31129;44.810;10.334;2023-03-30T01:12:05;101412.16;;;14.54
45393;BMP280;31129;44.810;10.334;2023-03-30T01:14:31;101418.88;;;14.53
45393;BMP280;31129;44.810;10.334;2023-03-30T01:32:29;101420.41;;;14.25
45393;BMP280;31129;44.810;10.334;2023-03-30T01:39:56;101412.75;;;14.14
45393;BMP280;31129;44.810;10.334;2023-03-30T01:45:13;101420.69;;;14.12
45393;BMP280;31129;44.810;10.334;2023-03-30T01:47:53;101416.69;;;13.99
45393;BMP280;31129;44.810;10.334;2023-03-30T01:50:29;101411.50;;;14.01
45393;BMP280;31129;44.810;10.334;2023-03-30T01:58:05;101433.06;;;13.93
45393;BMP280;31129;44.810;10.334;2023-03-30T02:00:32;101417.06;;;14.06
45393;BMP280;31129;44.810;10.334;2023-03-30T02:03:08;101424.41;;;14.09
45393;BMP280;31129;44.810;10.334;2023-03-30T02:05:36;101411.91;;;14.08
45393;BMP280;31129;44.810;10.334;2023-03-30T02:08:06;101420.19;;;13.99
45393;BMP280;31129;44.810;10.334;2023-03-30T02:10:33;101423.69;;;14.00
45393;BMP280;31129;44.810;10.334;2023-03-30T02:12:59;101420.19;;;13.99
45393;BMP280;31129;44.810;10.334;2023-03-30T02:15:27;101407.22;;;14.00
45393;BMP280;31129;44.810;10.334;2023-03-30T02:17:54;101410.69;;;14.09
45393;BMP280;31129;44.810;10.334;2023-03-30T02:20:26;101404.88;;;13.78
45393;BMP280;31129;44.810;10.334;2023-03-30T02:22:53;101396.59;;;13.39
45393;BMP280;31129;44.810;10.334;2023-03-30T02:25:18;101402.25;;;13.36
45393;BMP280;31129;44.810;10.334;2023-03-30T02:27:44;101405.22;;;13.23
45393;BMP280;31129;44.810;10.334;2023-03-30T02:30:12;101413.81;;;13.16
45393;BMP280;31129;44.810;10.334;2023-03-30T02:32:43;101392.53;;;13.35
45393;BMP280;31129;44.810;10.334;2023-03-30T02:35:15;101393.56;;;13.37
45393;BMP280;31129;44.810;10.334;2023-03-30T02:48:28;101376.88;;;13.50
45393;BMP280;31129;44.810;10.334;2023-03-30T02:54:15;101378.59;;;13.47
45393;BMP280;31129;44.810;10.334;2023-03-30T02:57:14;101385.44;;;13.43
45393;BMP280;31129;44.810;10.334;2023-03-30T02:59:59;101375.94;;;13.29
45393;BMP280;31129;44.810;10.334;2023-03-30T03:02:30;101370.13;;;13.36
45393;BMP280;31129;44.810;10.334;2023-03-30T03:05:16;101380.44;;;13.41
45393;BMP280;31129;44.810;10.334;2023-03-30T03:07:59;101365.28;;;13.31
45393;BMP280;31129;44.810;10.334;2023-03-30T03:10:25;101363.88;;;13.36
45393;BMP280;31129;44.810;10.334;2023-03-30T03:12:50;101361.38;;;13.23
45393;BMP280;31129;44.810;10.334;2023-03-30T03:15:16;101365.47;;;13.28
45393;BMP280;31129;44.810;10.334;2023-03-30T03:17:58;101364.94;;;13.14
45393;BMP280;31129;44.810;10.334;2023-03-30T03:20:24;101360.38;;;13.11
45393;BMP280;31129;44.810;10.334;2023-03-30T03:22:54;101359.16;;;13.12
45393;BMP280;31129;44.810;10.334;2023-03-30T03:25:20;101369.78;;;13.20
45393;BMP280;31129;44.810;10.334;2023-03-30T03:27:53;101355.03;;;13.17
45393;BMP280;31129;44.810;10.334;2023-03-30T03:30:21;101353.34;;;13.20
45393;BMP280;31129;44.810;10.334;2023-03-30T03:32:56;101348.50;;;13.14
45393;BMP280;31129;44.810;10.334;2023-03-30T03:35:23;101352.00;;;13.15
45393;BMP280;31129;44.810;10.334;2023-03-30T03:37:49;101356.84;;;13.20
45393;BMP280;31129;44.810;10.334;2023-03-30T03:40:14;101374.72;;;13.30
45393;BMP280;31129;44.810;10.334;2023-03-30T03:42:40;101373.50;;;13.07
45393;BMP280;31129;44.810;10.334;2023-03-30T03:45:11;101358.47;;;13.03
45393;BMP280;31129;44.810;10.334;2023-03-30T03:47:49;101359.75;;;13.16
45393;BMP280;31129;44.810;10.334;2023-03-30T03:50:15;101377.19;;;13.04
45393;BMP280;31129;44.810;10.334;2023-03-30T03:52:40;101370.22;;;12.94
45393;BMP280;31129;44.810;10.334;2023-03-30T03:55:10;101362.47;;;12.93
45393;BMP280;31129;44.810;10.334;2023-03-30T03:57:38;101361.72;;;12.92
45393;BMP280;31129;44.810;10.334;2023-03-30T04:00:04;101359.53;;;12.96
45393;BMP280;31129;44.810;10.334;2023-03-30T04:02:40;101364.00;;;12.94
45393;BMP280;31129;44.810;10.334;2023-03-30T04:05:05;101363.34;;;12.99
45393;BMP280;31129;44.810;10.334;2023-03-30T04:07:31;101371.34;;;12.88
45393;BMP280;31129;44.810;10.334;2023-03-30T04:09:58;101367.19;;;12.92
45393;BMP280;31129;44.810;10.334;2023-03-30T04:12:42;101362.47;;;12.93
45393;BMP280;31129;44.810;10.334;2023-03-30T04:15:22;101359.53;;;12.96
45393;BMP280;31129;44.810;10.334;2023-03-30T04:18:14;101362.28;;;12.96
45393;BMP280;31129;44.810;10.334;2023-03-30T04:21:06;101362.63;;;12.89
45393;BMP280;31129;44.810;10.334;2023-03-30T04:23:47;101363.34;;;12.99
45393;BMP280;31129;44.810;10.334;2023-03-30T04:26:31;101363.66;;;13.01
45393;BMP280;31129;44.810;10.334;2023-03-30T04:29:08;101356.34;;;12.98
45393;BMP280;31129;44.810;10.334;2023-03-30T04:31:52;101365.97;;;12.93
45393;BMP280;31129;44.810;10.334;2023-03-30T04:34:39;101362.28;;;12.96
45393;BMP280;31129;44.810;10.334;2023-03-30T04:37:26;101363.81;;;12.97
45393;BMP280;31129;44.810;10.334;2023-03-30T04:40:10;101352.94;;;12.88
45393;BMP280;31129;44.810;10.334;2023-03-30T04:42:55;101336.75;;;12.90
45393;BMP280;31129;44.810;10.334;2023-03-30T04:45:38;101347.25;;;12.92
45393;BMP280;31129;44.810;10.334;2023-03-30T04:48:20;101337.16;;;12.98
45393;BMP280;31129;44.810;10.334;2023-03-30T04:51:07;101334.63;;;12.94
45393;BMP280;31129;44.810;10.334;2023-03-30T04:53:51;101335.19;;;12.98
45393;BMP280;31129;44.810;10.334;2023-03-30T04:56:51;101333.16;;;13.08
45393;BMP280;31129;44.810;10.334;2023-03-30T04:59:37;101336.31;;;12.92
45393;BMP280;31129;44.810;10.334;2023-03-30T05:02:21;101338.63;;;12.84
45393;BMP280;31129;44.810;10.334;2023-03-30T05:05:00;101336.34;;;12.82
45393;BMP280;31129;44.810;10.334;2023-03-30T05:07:44;101338.03;;;12.80
45393;BMP280;31129;44.810;10.334;2023-03-30T05:10:26;101343.53;;;12.80
45393;BMP280;31129;44.810;10.334;2023-03-30T05:13:11;101330.94;;;12.73
45393;BMP280;31129;44.810;10.334;2023-03-30T05:16:06;101335.41;;;12.62
45393;BMP280;31129;44.810;10.334;2023-03-30T05:19:06;101335.34;;;12.71
45393;BMP280;31129;44.810;10.334;2023-03-30T05:21:46;101351.63;;;12.74
45393;BMP280;31129;44.810;10.334;2023-03-30T05:24:33;101337.75;;;12.78
45393;BMP280;31129;44.810;10.334;2023-03-30T05:27:25;101339.94;;;12.65
45393;BMP280;31129;44.810;10.334;2023-03-30T05:30:01;101346.16;;;12.65
45393;BMP280;31129;44.810;10.334;2023-03-30T05:32:41;101353.31;;;12.63
45393;BMP280;31129;44.810;10.334;2023-03-30T05:35:22;101354.69;;;12.67
45393;BMP280;31129;44.810;10.334;2023-03-30T05:38:02;101348.91;;;12.65
45393;BMP280;31129;44.810;10.334;2023-03-30T05:40:57;101362.09;;;12.76
45393;BMP280;31129;44.810;10.334;2023-03-30T05:43:30;101356.25;;;12.59
45393;BMP280;31129;44.810;10.334;2023-03-30T05:46:31;101361.75;;;12.83
45393;BMP280;31129;44.810;10.334;2023-03-30T05:49:15;101358.63;;;12.75
45393;BMP280;31129;44.810;10.334;2023-03-30T05:52:10;101343.81;;;12.82
45393;BMP280;31129;44.810;10.334;2023-03-30T05:54:59;101342.44;;;12.87
45393;BMP280;31129;44.810;10.334;2023-03-30T05:57:44;101351.06;;;12.94
45393;BMP280;31129;44.810;10.334;2023-03-30T06:00:20;101357.09;;;12.98
45393;BMP280;31129;44.810;10.334;2023-03-30T06:03:01;101361.69;;;13.01
45393;BMP280;31129;44.810;10.334;2023-03-30T06:05:30;101359.91;;;13.13
45393;BMP280;31129;44.810;10.334;2023-03-30T06:07:58;101369.50;;;13.17
45393;BMP280;31129;44.810;10.334;2023-03-30T06:10:24;101363.34;;;13.23
45393;BMP280;31129;44.810;10.334;2023-03-30T06:12:51;101367.63;;;13.24
45393;BMP280;31129;44.810;10.334;2023-03-30T06:15:45;101371.88;;;13.25
45393;BMP280;31129;44.810;10.334;2023-03-30T06:18:16;101378.00;;;13.20
45393;BMP280;31129;44.810;10.334;2023-03-30T06:20:50;101378.84;;;13.35
45393;BMP280;31129;44.810;10.334;2023-03-30T06:23:16;101384.03;;;13.33
45393;BMP280;31129;44.810;10.334;2023-03-30T06:25:45;101384.78;;;13.33
45393;BMP280;31129;44.810;10.334;2023-03-30T06:28:11;101384.31;;;13.35
45393;BMP280;31129;44.810;10.334;2023-03-30T06:30:37;101382.69;;;13.43
45393;BMP280;31129;44.810;10.334;2023-03-30T06:33:05;101377.50;;;13.45
45393;BMP280;31129;44.810;10.334;2023-03-30T06:35:46;101388.44;;;13.54
45393;BMP280;31129;44.810;10.334;2023-03-30T06:38:12;101403.38;;;13.53
45393;BMP280;31129;44.810;10.334;2023-03-30T06:40:37;101386.19;;;13.67
45393;BMP280;31129;44.810;10.334;2023-03-30T06:43:03;101383.06;;;13.74
45393;BMP280;31129;44.810;10.334;2023-03-30T06:45:37;101392.25;;;13.86
45393;BMP280;31129;44.810;10.334;2023-03-30T06:48:03;101391.44;;;13.95
45393;BMP280;31129;44.810;10.334;2023-03-30T06:50:31;101396.75;;;14.13
45393;BMP280;31129;44.810;10.334;2023-03-30T06:53:01;101394.84;;;14.19
45393;BMP280;31129;44.810;10.334;2023-03-30T06:55:36;101412.66;;;14.09
45393;BMP280;31129;44.810;10.334;2023-03-30T06:58:01;101403.56;;;14.32
45393;BMP280;31129;44.810;10.334;2023-03-30T07:00:27;101402.97;;;14.43
45393;BMP280;31129;44.810;10.334;2023-03-30T07:03:12;101405.53;;;14.46
45393;BMP280;31129;44.810;10.334;2023-03-30T07:05:50;101401.34;;;14.51
45393;BMP280;31129;44.810;10.334;2023-03-30T07:08:24;101405.34;;;14.50
45393;BMP280;31129;44.810;10.334;2023-03-30T07:10:52;101410.34;;;14.51
45393;BMP280;31129;44.810;10.334;2023-03-30T07:13:19;101411.22;;;14.57
45393;BMP280;31129;44.810;10.334;2023-03-30T07:15:46;101413.25;;;14.77
45393;BMP280;31129;44.810;10.334;2023-03-30T07:18:12;101409.72;;;14.77
45393;BMP280;31129;44.810;10.334;2023-03-30T07:20:38;101401.88;;;14.84
45393;BMP280;31129;44.810;10.334;2023-03-30T07:23:18;101399.94;;;14.90
45393;BMP280;31129;44.810;10.334;2023-03-30T07:25:44;101399.34;;;15.01
45393;BMP280;31129;44.810;10.334;2023-03-30T07:28:18;101401.56;;;15.17
45393;BMP280;31129;44.810;10.334;2023-03-30T07:30:53;101405.25;;;15.34
45393;BMP280;31129;44.810;10.334;2023-03-30T07:33:20;101389.66;;;15.46
45393;BMP280;31129;44.810;10.334;2023-03-30T07:35:46;101402.59;;;15.60
45393;BMP280;31129;44.810;10.334;2023-03-30T07:38:18;101402.41;;;15.69
45393;BMP280;31129;44.810;10.334;2023-03-30T07:40:49;101403.00;;;15.79
45393;BMP280;31129;44.810;10.334;2023-03-30T07:43:15;101389.91;;;15.94
45393;BMP280;31129;44.810;10.334;2023-03-30T07:45:42;101387.44;;;16.02
45393;BMP280;31129;44.810;10.334;2023-03-30T07:48:10;101392.59;;;16.20
45393;BMP280;31129;44.810;10.334;2023-03-30T07:50:35;101399.75;;;16.06
45393;BMP280;31129;44.810;10.334;2023-03-30T07:53:01;101397.75;;;16.07
45393;BMP280;31129;44.810;10.334;2023-03-30T07:55:27;101390.25;;;16.07
45393;BMP280;31129;44.810;10.334;2023-03-30T07:58:03;101392.66;;;16.26
45393;BMP280;31129;44.810;10.334;2023-03-30T08:00:28;101389.91;;;16.26
45393;BMP280;31129;44.810;10.334;2023-03-30T08:03:24;101392.78;;;16.48
45393;BMP280;31129;44.810;10.334;2023-03-30T08:06:00;101394.47;;;16.71
45393;BMP280;31129;44.810;10.334;2023-03-30T08:08:33;101387.34;;;16.53
45393;BMP280;31129;44.810;10.334;2023-03-30T08:10:59;101383.97;;;16.75
45393;BMP280;31129;44.810;10.334;2023-03-30T08:13:24;101384.09;;;16.98
45393;BMP280;31129;44.810;10.334;2023-03-30T08:15:50;101394.63;;;16.57
45393;BMP280;31129;44.810;10.334;2023-03-30T08:18:17;101399.75;;;16.75
45393;BMP280;31129;44.810;10.334;2023-03-30T08:20:42;101386.88;;;16.61
45393;BMP280;31129;44.810;10.334;2023-03-30T08:23:08;101393.47;;;16.74
45393;BMP280;31129;44.810;10.334;2023-03-30T08:25:34;101387.19;;;16.74
45393;BMP280;31129;44.810;10.334;2023-03-30T08:28:00;101382.50;;;16.85
45393;BMP280;31129;44.810;10.334;2023-03-30T08:30:26;101388.53;;;16.89
45393;BMP280;31129;44.810;10.334;2023-03-30T08:32:53;101394.13;;;17.01
45393;BMP280;31129;44.810;10.334;2023-03-30T08:35:18;101385.38;;;17.08
45393;BMP280;31129;44.810;10.334;2023-03-30T08:37:44;101390.50;;;17.43
45393;BMP280;31129;44.810;10.334;2023-03-30T08:40:10;101394.22;;;17.40
45393;BMP280;31129;44.810;10.334;2023-03-30T08:45:06;101401.25;;;17.41
45393;BMP280;31129;44.810;10.334;2023-03-30T08:47:34;101401.78;;;17.39
45393;BMP280;31129;44.810;10.334;2023-03-30T08:50:10;101405.63;;;17.58
45393;BMP280;31129;44.810;10.334;2023-03-30T08:52:37;101408.84;;;17.57
45393;BMP280;31129;44.810;10.334;2023-03-30T08:55:08;101405.31;;;17.51
45393;BMP280;31129;44.810;10.334;2023-03-30T08:57:50;101406.41;;;17.92
45393;BMP280;31129;44.810;10.334;2023-03-30T09:00:18;101398.59;;;17.74
45393;BMP280;31129;44.810;10.334;2023-03-30T09:02:48;101397.56;;;17.66
45393;BMP280;31129;44.810;10.334;2023-03-30T09:07:51;101406.88;;;17.74
45393;BMP280;31129;44.810;10.334;2023-03-30T09:10:19;101394.06;;;17.77
45393;BMP280;31129;44.810;10.334;2023-03-30T09:12:47;101386.53;;;17.71
45393;BMP280;31129;44.810;10.334;2023-03-30T09:15:20;101382.25;;;17.59
45393;BMP280;31129;44.810;10.334;2023-03-30T09:17:58;101391.22;;;17.38
45393;BMP280;31129;44.810;10.334;2023-03-30T09:20:26;101387.75;;;17.43
45393;BMP280;31129;44.810;10.334;2023-03-30T09:22:53;101391.69;;;17.14
45393;BMP280;31129;44.810;10.334;2023-03-30T09:27:46;101386.91;;;17.20
45393;BMP280;31129;44.810;10.334;2023-03-30T09:30:16;101374.66;;;17.32
45393;BMP280;31129;44.810;10.334;2023-03-30T09:32:43;101376.94;;;17.33
45393;BMP280;31129;44.810;10.334;2023-03-30T09:35:12;101380.94;;;17.38
45393;BMP280;31129;44.810;10.334;2023-03-30T09:37:39;101376.94;;;17.39
45393;BMP280;31129;44.810;10.334;2023-03-30T09:41:10;101371.91;;;17.38
45393;BMP280;31129;44.810;10.334;2023-03-30T09:43:03;101378.22;;;17.44
45393;BMP280;31129;44.810;10.334;2023-03-30T09:45:32;101385.00;;;17.48
45393;BMP280;31129;44.810;10.334;2023-03-30T09:48:02;101374.72;;;17.60
45393;BMP280;31129;44.810;10.334;2023-03-30T09:50:27;101371.72;;;17.80
45393;BMP280;31129;44.810;10.334;2023-03-30T09:52:54;101366.97;;;17.92
45393;BMP280;31129;44.810;10.334;2023-03-30T09:57:46;101362.22;;;17.92
45393;BMP280;31129;44.810;10.334;2023-03-30T10:00:28;101360.44;;;18.06
45393;BMP280;31129;44.810;10.334;2023-03-30T10:02:59;101367.69;;;18.26
45393;BMP280;31129;44.810;10.334;2023-03-30T10:05:25;101357.69;;;18.06
45393;BMP280;31129;44.810;10.334;2023-03-30T10:07:58;101357.34;;;18.32
45393;BMP280;31129;44.810;10.334;2023-03-30T10:10:31;101362.09;;;18.48
45393;BMP280;31129;44.810;10.334;2023-03-30T10:15:36;101360.03;;;18.60
45393;BMP280;31129;44.810;10.334;2023-03-30T10:18:05;101363.34;;;18.58
45393;BMP280;31129;44.810;10.334;2023-03-30T10:20:35;101360.88;;;18.32
45393;BMP280;31129;44.810;10.334;2023-03-30T10:23:12;101364.19;;;18.25
45393;BMP280;31129;44.810;10.334;2023-03-30T10:25:39;101357.16;;;18.24
45393;BMP280;31129;44.810;10.334;2023-03-30T10:28:05;101337.78;;;18.35
45393;BMP280;31129;44.810;10.334;2023-03-30T10:30:39;101344.00;;;18.52
45393;BMP280;31129;44.810;10.334;2023-03-30T10:33:04;101339.94;;;18.65
45393;BMP280;31129;44.810;10.334;2023-03-30T10:35:34;101325.75;;;18.90
45393;BMP280;31129;44.810;10.334;2023-03-30T10:38:01;101342.38;;;18.79
45393;BMP280;31129;44.810;10.334;2023-03-30T10:40:33;101326.09;;;18.70
45393;BMP280;31129;44.810;10.334;2023-03-30T10:43:01;101323.78;;;18.80
45393;BMP280;31129;44.810;10.334;2023-03-30T10:45:29;101311.16;;;18.90
45393;BMP280;31129;44.810;10.334;2023-03-30T10:48:02;101310.09;;;18.99
45393;BMP280;31129;44.810;10.334;2023-03-30T10:50:36;101315.06;;;19.06
45393;BMP280;31129;44.810;10.334;2023-03-30T10:53:25;101313.81;;;19.07
45393;BMP280;31129;44.810;10.334;2023-03-30T11:01:11;101300.31;;;19.33
45393;BMP280;31129;44.810;10.334;2023-03-30T11:03:40;101288.94;;;19.37
45393;BMP280;31129;44.810;10.334;2023-03-30T11:06:13;101285.25;;;19.28
45393;BMP280;31129;44.810;10.334;2023-03-30T11:08:41;101280.59;;;19.72
45393;BMP280;31129;44.810;10.334;2023-03-30T11:11:10;101273.47;;;19.52
45393;BMP280;31129;44.810;10.334;2023-03-30T11:13:39;101266.16;;;19.79
45393;BMP280;31129;44.810;10.334;2023-03-30T11:16:07;101257.72;;;19.71
45393;BMP280;31129;44.810;10.334;2023-03-30T11:21:04;101264.91;;;19.50
45393;BMP280;31129;44.810;10.334;2023-03-30T11:30:52;101251.16;;;19.45
45393;BMP280;31129;44.810;10.334;2023-03-30T11:33:26;101241.19;;;19.55
45393;BMP280;31129;44.810;10.334;2023-03-30T11:35:57;101247.00;;;19.81
45393;BMP280;31129;44.810;10.334;2023-03-30T11:38:25;101240.00;;;19.99
45393;BMP280;31129;44.810;10.334;2023-03-30T11:40:53;101232.84;;;20.09
45393;BMP280;31129;44.810;10.334;2023-03-30T11:43:21;101247.75;;;19.57
45393;BMP280;31129;44.810;10.334;2023-03-30T11:46:02;101247.88;;;19.70
45393;BMP280;31129;44.810;10.334;2023-03-30T11:53:22;101238.91;;;20.07
45393;BMP280;31129;44.810;10.334;2023-03-30T11:56:09;101223.28;;;19.61
45393;BMP280;31129;44.810;10.334;2023-03-30T11:58:36;101221.31;;;20.05
45393;BMP280;31129;44.810;10.334;2023-03-30T12:03:46;101217.50;;;19.84
45393;BMP280;31129;44.810;10.334;2023-03-30T12:13:55;101222.84;;;20.00
45393;BMP280;31129;44.810;10.334;2023-03-30T12:16:23;101228.63;;;20.02
45393;BMP280;31129;44.810;10.334;2023-03-30T12:19:04;101226.44;;;19.95
45393;BMP280;31129;44.810;10.334;2023-03-30T12:26:41;101201.72;;;20.16
45393;BMP280;31129;44.810;10.334;2023-03-30T12:29:08;101203.59;;;20.45
45393;BMP280;31129;44.810;10.334;2023-03-30T12:34:11;101191.19;;;20.52
45393;BMP280;31129;44.810;10.334;2023-03-30T12:36:40;101204.28;;;20.14
45393;BMP280;31129;44.810;10.334;2023-03-30T12:39:14;101186.38;;;20.52
45393;BMP280;31129;44.810;10.334;2023-03-30T12:41:44;101182.72;;;20.76
45393;BMP280;31129;44.810;10.334;2023-03-30T12:49:20;101177.31;;;21.42
45393;BMP280;31129;44.810;10.334;2023-03-30T12:54:25;101167.69;;;20.53
45393;BMP280;31129;44.810;10.334;2023-03-30T13:04:31;101170.09;;;20.94
45393;BMP280;31129;44.810;10.334;2023-03-30T13:07:00;101191.03;;;20.76
45393;BMP280;31129;44.810;10.334;2023-03-30T13:14:38;101158.38;;;21.41
45393;BMP280;31129;44.810;10.334;2023-03-30T13:17:14;101146.94;;;21.18
45393;BMP280;31129;44.810;10.334;2023-03-30T13:19:42;101144.91;;;21.05
45393;BMP280;31129;44.810;10.334;2023-03-30T13:27:24;101137.31;;;21.32
45393;BMP280;31129;44.810;10.334;2023-03-30T13:29:59;101132.44;;;21.25
45393;BMP280;31129;44.810;10.334;2023-03-30T13:35:00;101122.06;;;21.12
45393;BMP280;31129;44.810;10.334;2023-03-30T13:37:46;101122.69;;;21.05
45393;BMP280;31129;44.810;10.334;2023-03-30T13:40:17;101106.03;;;21.31
45393;BMP280;31129;44.810;10.334;2023-03-30T13:42:58;101115.56;;;21.10
45393;BMP280;31129;44.810;10.334;2023-03-30T13:48:01;101127.31;;;21.55
45393;BMP280;31129;44.810;10.334;2023-03-30T13:50:31;101115.88;;;21.79
45393;BMP280;31129;44.810;10.334;2023-03-30T13:53:03;101120.06;;;21.39
45393;BMP280;31129;44.810;10.334;2023-03-30T13:55:39;101116.47;;;21.65
45393;BMP280;31129;44.810;10.334;2023-03-30T13:58:09;101109.16;;;21.88
45393;BMP280;31129;44.810;10.334;2023-03-30T14:00:38;101106.97;;;21.60
45393;BMP280;31129;44.810;10.334;2023-03-30T14:04:08;101103.28;;;21.18
45393;BMP280;31129;44.810;10.334;2023-03-30T14:06:04;101091.06;;;21.48
45393;BMP280;31129;44.810;10.334;2023-03-30T14:08:32;101081.78;;;21.45
45393;BMP280;31129;44.810;10.334;2023-03-30T14:11:04;101069.34;;;21.59
45393;BMP280;31129;44.810;10.334;2023-03-30T14:13:32;101083.19;;;21.86
45393;BMP280;31129;44.810;10.334;2023-03-30T14:15:58;101088.31;;;21.08
45393;BMP280;31129;44.810;10.334;2023-03-30T14:18:23;101082.66;;;21.40
45393;BMP280;31129;44.810;10.334;2023-03-30T14:20:49;101083.22;;;21.72
45393;BMP280;31129;44.810;10.334;2023-03-30T14:23:24;101092.03;;;21.84
45393;BMP280;31129;44.810;10.334;2023-03-30T14:25:52;101076.38;;;21.26
45393;BMP280;31129;44.810;10.334;2023-03-30T14:28:27;101062.78;;;20.83
45393;BMP280;31129;44.810;10.334;2023-03-30T14:30:57;101054.88;;;20.61
45393;BMP280;31129;44.810;10.334;2023-03-30T14:33:23;101045.22;;;20.36
45393;BMP280;31129;44.810;10.334;2023-03-30T14:35:50;101043.03;;;20.74
45393;BMP280;31129;44.810;10.334;2023-03-30T14:38:25;101037.56;;;20.55
45393;BMP280;31129;44.810;10.334;2023-03-30T14:40:54;101036.44;;;20.77
45393;BMP280;31129;44.810;10.334;2023-03-30T14:43:23;101033.19;;;21.38
45393;BMP280;31129;44.810;10.334;2023-03-30T14:45:52;101043.31;;;21.49
45393;BMP280;31129;44.810;10.334;2023-03-30T14:48:28;101022.88;;;21.13
45393;BMP280;31129;44.810;10.334;2023-03-30T14:50:55;101022.13;;;21.12
45393;BMP280;31129;44.810;10.334;2023-03-30T14:53:22;101045.50;;;20.77
45393;BMP280;31129;44.810;10.334;2023-03-30T14:55:49;101067.66;;;20.51
45393;BMP280;31129;44.810;10.334;2023-03-30T14:58:14;101075.63;;;20.09
45393;BMP280;31129;44.810;10.334;2023-03-30T15:00:40;101023.88;;;20.31
45393;BMP280;31129;44.810;10.334;2023-03-30T15:03:08;101025.97;;;20.96
45393;BMP280;31129;44.810;10.334;2023-03-30T15:05:37;101025.19;;;21.35
45393;BMP280;31129;44.810;10.334;2023-03-30T15:08:05;101052.22;;;21.34
45393;BMP280;31129;44.810;10.334;2023-03-30T15:10:36;101036.75;;;21.26
45393;BMP280;31129;44.810;10.334;2023-03-30T15:13:08;101030.34;;;21.18
45393;BMP280;31129;44.810;10.334;2023-03-30T15:15:34;101040.38;;;20.94
45393;BMP280;31129;44.810;10.334;2023-03-30T15:18:02;101042.06;;;20.71
45393;BMP280;31129;44.810;10.334;2023-03-30T15:20:28;101018.72;;;20.93
45393;BMP280;31129;44.810;10.334;2023-03-30T15:22:55;101006.97;;;20.47
45393;BMP280;31129;44.810;10.334;2023-03-30T15:25:21;101012.50;;;20.15
45393;BMP280;31129;44.810;10.334;2023-03-30T15:27:53;101009.19;;;20.04
45393;BMP280;31129;44.810;10.334;2023-03-30T15:30:25;101018.19;;;19.91
45393;BMP280;31129;44.810;10.334;2023-03-30T15:32:52;101026.97;;;19.77
45393;BMP280;31129;44.810;10.334;2023-03-30T15:35:22;101032.41;;;19.82
45393;BMP280;31129;44.810;10.334;2023-03-30T15:40:28;101023.44;;;19.76
45393;BMP280;31129;44.810;10.334;2023-03-30T15:43:10;101021.44;;;19.58
45393;BMP280;31129;44.810;10.334;2023-03-30T15:45:35;101018.94;;;19.36
45393;BMP280;31129;44.810;10.334;2023-03-30T15:48:01;101013.81;;;19.45
45393;BMP280;31129;44.810;10.334;2023-03-30T15:50:26;101001.59;;;19.54
45393;BMP280;31129;44.810;10.334;2023-03-30T15:52:56;101027.28;;;19.11
45393;BMP280;31129;44.810;10.334;2023-03-30T15:55:25;101017.00;;;19.06
45393;BMP280;31129;44.810;10.334;2023-03-30T15:57:50;100999.50;;;18.98
45393;BMP280;31129;44.810;10.334;2023-03-30T16:00:23;101006.31;;;18.97
45393;BMP280;31129;44.810;10.334;2023-03-30T16:02:53;100999.53;;;18.92
45393;BMP280;31129;44.810;10.334;2023-03-30T16:05:22;101034.78;;;18.68
45393;BMP280;31129;44.810;10.334;2023-03-30T16:07:48;101009.47;;;18.58
45393;BMP280;31129;44.810;10.334;2023-03-30T16:10:14;101019.34;;;18.48
45393;BMP280;31129;44.810;10.334;2023-03-30T16:12:41;101017.38;;;18.43
45393;BMP280;31129;44.810;10.334;2023-03-30T16:15:12;101028.94;;;18.41
45393;BMP280;31129;44.810;10.334;2023-03-30T16:17:37;101030.03;;;18.63